createdAt,value
2022-08-21T00:02:25.994Z,100957.81
2022-08-21T00:04:57.741Z,100961.03
2022-08-21T00:07:29.968Z,100954.47
2022-08-21T00:09:59.562Z,100947.09
2022-08-21T00:12:28.959Z,100965.97
2022-08-21T00:15:01.569Z,100959.19
2022-08-21T00:17:30.941Z,100968.94
2022-08-21T00:20:00.082Z,100969.09
2022-08-21T00:22:29.277Z,100967.13
2022-08-21T00:24:58.431Z,100962.84
2022-08-21T00:27:27.703Z,100964.81
2022-08-21T00:29:57.305Z,100961.25
2022-08-21T00:32:29.653Z,100964.94
2022-08-21T00:34:59.226Z,100979.44
2022-08-21T00:37:28.414Z,100962.94
2022-08-21T00:39:59.814Z,100970.91
2022-08-21T00:42:31.678Z,100971.81
2022-08-21T00:45:01.209Z,100968.84
2022-08-21T00:47:31.978Z,100953.31
2022-08-21T00:50:01.404Z,100961.00
2022-08-21T00:52:36.135Z,100962.34
2022-08-21T00:55:09.598Z,100960.53
2022-08-21T00:57:47.126Z,100966.34
2022-08-21T01:00:32.921Z,100958.84
2022-08-21T01:03:09.429Z,100960.56
2022-08-21T01:05:40.745Z,100954.09
2022-08-21T01:08:15.219Z,100955.19
2022-08-21T01:10:44.975Z,100969.31
2022-08-21T01:13:19.334Z,100964.81
2022-08-21T01:15:55.066Z,100971.50
2022-08-21T01:18:26.548Z,100960.22
2022-08-21T01:21:09.814Z,100975.53
2022-08-21T01:23:45.309Z,100975.44
2022-08-21T01:26:17.270Z,100967.97
2022-08-21T01:28:54.581Z,100971.66
2022-08-21T01:31:28.422Z,100975.59
2022-08-21T01:33:58.880Z,100967.28
2022-08-21T01:36:29.814Z,100974.09
2022-08-21T01:38:59.613Z,100970.97
2022-08-21T01:41:28.878Z,100976.97
2022-08-21T01:43:58.132Z,100978.13
2022-08-21T01:46:27.611Z,100983.97
2022-08-21T01:48:56.837Z,100989.72
2022-08-21T01:51:26.016Z,100989.81
2022-08-21T01:53:56.700Z,100983.41
2022-08-21T01:56:27.139Z,100979.78
2022-08-21T01:58:56.617Z,100986.44
2022-08-21T02:01:26.131Z,100983.31
2022-08-21T02:03:55.729Z,100985.59
2022-08-21T02:06:24.914Z,100977.91
2022-08-21T02:08:55.634Z,100979.28
2022-08-21T02:11:25.096Z,100969.13
2022-08-21T02:13:54.440Z,100975.00
2022-08-21T02:16:23.657Z,100975.69
2022-08-21T02:18:53.193Z,100973.59
2022-08-21T02:21:22.499Z,100966.75
2022-08-21T02:23:51.970Z,100988.75
2022-08-21T02:26:22.653Z,100982.31
2022-08-21T02:28:52.041Z,100978.63
2022-08-21T02:31:21.415Z,100983.31
2022-08-21T02:33:50.668Z,100980.78
2022-08-21T02:36:20.255Z,100978.69
2022-08-21T02:38:50.523Z,100982.72
2022-08-21T02:41:23.221Z,100972.44
2022-08-21T02:43:52.247Z,100971.88
2022-08-21T02:46:22.754Z,100980.78
2022-08-21T02:48:52.437Z,100983.88
2022-08-21T02:51:23.785Z,100973.88
2022-08-21T02:53:53.134Z,100963.19
2022-08-21T02:56:24.547Z,100959.50
2022-08-21T02:58:58.909Z,100960.78
2022-08-21T03:01:28.561Z,100960.78
2022-08-21T03:03:57.821Z,100953.31
2022-08-21T03:06:26.997Z,100952.69
2022-08-21T03:08:56.292Z,100950.63
2022-08-21T03:11:27.581Z,100950.38
2022-08-21T03:13:56.803Z,100955.75
2022-08-21T03:16:26.241Z,100959.00
2022-08-21T03:18:55.632Z,100951.72
2022-08-21T03:21:24.813Z,100954.03
2022-08-21T03:23:55.186Z,100957.84
2022-08-21T03:26:26.218Z,100965.66
2022-08-21T03:28:58.861Z,100962.44
2022-08-21T03:31:31.866Z,100961.13
2022-08-21T03:34:01.501Z,100962.00
2022-08-21T03:36:30.746Z,100963.03
2022-08-21T03:39:00.046Z,100968.84
2022-08-21T03:41:29.261Z,100971.47
2022-08-21T03:44:00.239Z,100965.22
2022-08-21T03:46:29.454Z,100962.81
2022-08-21T03:48:58.948Z,100972.84
2022-08-21T03:51:28.471Z,100971.56
2022-08-21T03:53:57.682Z,100973.66
2022-08-21T03:56:26.955Z,100970.47
2022-08-21T03:58:56.716Z,100962.75
2022-08-21T04:01:27.377Z,100960.16
2022-08-21T04:03:56.550Z,100972.28
2022-08-21T04:06:27.127Z,100969.22
2022-08-21T04:08:56.373Z,100967.78
2022-08-21T04:11:25.542Z,100980.25
2022-08-21T04:13:54.845Z,100971.84
2022-08-21T04:16:24.044Z,100983.81
2022-08-21T04:18:54.644Z,100984.97
2022-08-21T04:21:24.425Z,100980.47
2022-08-21T04:23:55.928Z,100986.16
2022-08-21T04:26:26.649Z,100998.75
2022-08-21T04:28:57.158Z,100990.03
2022-08-21T04:31:26.572Z,100990.22
2022-08-21T04:33:58.289Z,100997.66
2022-08-21T04:36:28.516Z,100993.16
2022-08-21T04:38:57.844Z,101004.75
2022-08-21T04:41:27.994Z,101006.91
2022-08-21T04:43:57.831Z,101013.34
2022-08-21T04:46:27.341Z,101003.69
2022-08-21T04:48:58.206Z,101010.97
2022-08-21T04:51:32.286Z,101011.59
2022-08-21T04:54:08.990Z,101012.41
2022-08-21T04:56:42.315Z,101012.41
2022-08-21T04:59:17.910Z,101012.25
2022-08-21T05:01:48.246Z,101008.22
2022-08-21T05:04:24.848Z,101015.78
2022-08-21T05:06:56.918Z,101014.69
2022-08-21T05:09:27.184Z,101031.19
2022-08-21T05:11:57.811Z,101030.03
2022-08-21T05:14:28.303Z,101029.53
2022-08-21T05:16:57.748Z,101027.28
2022-08-21T05:19:28.639Z,101018.56
2022-08-21T05:21:58.768Z,101035.03
2022-08-21T05:24:27.994Z,101026.78
2022-08-21T05:26:57.329Z,101015.31
2022-08-21T05:29:26.959Z,101024.34
2022-08-21T05:31:56.489Z,101036.00
2022-08-21T05:34:27.898Z,101040.22
2022-08-21T05:36:57.094Z,101027.28
2022-08-21T05:39:26.340Z,101032.91
2022-08-21T05:41:55.571Z,101036.78
2022-08-21T05:44:24.777Z,101036.09
2022-08-21T05:46:56.083Z,101040.78
2022-08-21T05:49:25.279Z,101040.00
2022-08-21T05:51:55.807Z,101035.28
2022-08-21T05:54:25.287Z,101026.25
2022-08-21T05:56:54.529Z,101034.19
2022-08-21T05:59:23.855Z,101021.38
2022-08-21T06:01:53.897Z,101041.41
2022-08-21T06:04:23.136Z,101048.50
2022-08-21T06:06:54.431Z,101055.31
2022-08-21T06:09:25.319Z,101043.19
2022-08-21T06:11:54.578Z,101042.97
2022-08-21T06:14:23.871Z,101040.91
2022-08-21T06:16:53.169Z,101044.75
2022-08-21T06:19:22.719Z,101049.13
2022-08-21T06:21:51.956Z,101048.44
2022-08-21T06:24:21.379Z,101057.84
2022-08-21T06:26:52.143Z,101065.25
2022-08-21T06:29:22.061Z,101052.34
2022-08-21T06:31:52.989Z,101056.16
2022-08-21T06:34:22.346Z,101069.06
2022-08-21T06:36:51.808Z,101073.59
2022-08-21T06:39:25.365Z,101073.72
2022-08-21T06:42:01.971Z,101081.97
2022-08-21T06:44:33.591Z,101073.59
2022-08-21T06:47:02.929Z,101080.69
2022-08-21T06:49:32.337Z,101091.22
2022-08-21T06:52:02.803Z,101087.81
2022-08-21T06:54:32.663Z,101091.88
2022-08-21T06:57:06.517Z,101087.91
2022-08-21T06:59:36.022Z,101097.28
2022-08-21T07:02:05.901Z,101084.13
2022-08-21T07:04:35.351Z,101096.41
2022-08-21T07:07:07.126Z,101088.94
2022-08-21T07:09:36.346Z,101091.75
2022-08-21T07:12:07.619Z,101091.22
2022-08-21T07:14:36.882Z,101084.13
2022-08-21T07:17:06.380Z,101098.22
2022-08-21T07:19:35.632Z,101096.50
2022-08-21T07:22:05.574Z,101101.78
2022-08-21T07:24:34.975Z,101092.28
2022-08-21T07:27:09.434Z,101107.44
2022-08-21T07:29:40.666Z,101102.44
2022-08-21T07:32:10.546Z,101099.50
2022-08-21T07:34:39.807Z,101105.41
2022-08-21T07:37:10.038Z,101107.13
2022-08-21T07:39:39.976Z,101108.38
2022-08-21T07:42:09.563Z,101124.38
2022-08-21T07:44:40.170Z,101129.22
2022-08-21T07:47:10.128Z,101137.66
2022-08-21T07:49:39.508Z,101128.34
2022-08-21T07:52:09.126Z,101132.34
2022-08-21T07:54:38.396Z,101136.50
2022-08-21T07:57:07.667Z,101137.38
2022-08-21T07:59:40.971Z,101137.06
2022-08-21T08:02:10.225Z,101128.97
2022-08-21T08:04:50.617Z,101129.81
2022-08-21T08:07:20.442Z,101134.22
2022-08-21T08:09:49.750Z,101129.94
2022-08-21T08:12:19.462Z,101119.66
2022-08-21T08:14:52.966Z,101130.44
2022-08-21T08:17:24.451Z,101127.84
2022-08-21T08:19:53.911Z,101133.50
2022-08-21T08:22:26.170Z,101135.53
2022-08-21T08:24:59.171Z,101136.06
2022-08-21T08:27:28.504Z,101128.47
2022-08-21T08:29:59.428Z,101135.19
2022-08-21T08:32:32.345Z,101130.78
2022-08-21T08:35:01.707Z,101130.97
2022-08-21T08:37:34.547Z,101135.13
2022-08-21T08:40:05.437Z,101128.75
2022-08-21T08:42:38.991Z,101125.41
2022-08-21T08:45:13.780Z,101126.13
2022-08-21T08:47:47.694Z,101124.41
2022-08-21T08:50:22.526Z,101138.09
2022-08-21T08:52:58.764Z,101135.34
2022-08-21T08:55:35.678Z,101128.09
2022-08-21T08:58:05.689Z,101136.44
2022-08-21T09:00:36.423Z,101134.66
2022-08-21T09:03:06.256Z,101138.22
2022-08-21T09:05:56.622Z,101127.94
2022-08-21T09:08:49.933Z,101125.28
2022-08-21T09:11:30.799Z,101136.13
2022-08-21T09:14:16.176Z,101141.63
2022-08-21T09:17:05.144Z,101128.03
2022-08-21T09:19:58.472Z,101131.59
2022-08-21T09:22:43.887Z,101136.00
2022-08-21T09:25:22.159Z,101129.69
2022-08-21T09:27:53.671Z,101133.31
2022-08-21T09:30:30.063Z,101131.50
2022-08-21T09:33:01.606Z,101131.63
2022-08-21T09:35:30.852Z,101132.16
2022-08-21T09:38:06.726Z,101124.94
2022-08-21T09:40:41.497Z,101129.00
2022-08-21T09:43:21.851Z,101133.41
2022-08-21T09:46:04.038Z,101134.25
2022-08-21T09:48:48.264Z,101133.44
2022-08-21T09:51:21.041Z,101121.47
2022-08-21T09:53:53.827Z,101125.09
2022-08-21T09:56:48.421Z,101127.06
2022-08-21T09:59:22.852Z,101120.97
2022-08-21T10:01:53.722Z,101120.47
2022-08-21T10:04:30.275Z,101133.28
2022-08-21T10:07:10.730Z,101132.47
2022-08-21T10:09:40.355Z,101129.31
2022-08-21T10:12:24.258Z,101129.44
2022-08-21T10:15:08.246Z,101133.41
2022-08-21T10:17:47.111Z,101122.94
2022-08-21T10:20:26.182Z,101126.78
2022-08-21T10:23:09.711Z,101112.47
2022-08-21T10:25:50.278Z,101120.00
2022-08-21T10:28:35.439Z,101113.44
2022-08-21T10:31:14.977Z,101108.41
2022-08-21T10:33:54.901Z,101101.91
2022-08-21T10:36:36.772Z,101114.16
2022-08-21T10:39:36.236Z,101108.50
2022-08-21T10:42:33.958Z,101105.97
2022-08-21T10:45:23.073Z,101111.28
2022-08-21T10:47:58.156Z,101118.25
2022-08-21T10:50:37.263Z,101124.69
2022-08-21T10:53:32.835Z,101120.22
2022-08-21T10:56:14.552Z,101119.09
2022-08-21T10:58:53.879Z,101124.13
2022-08-21T11:01:29.707Z,101125.50
2022-08-21T11:04:13.718Z,101124.88
2022-08-21T11:06:54.407Z,101118.22
2022-08-21T11:09:28.745Z,101115.78
2022-08-21T11:12:11.310Z,101122.66
2022-08-21T11:14:49.998Z,101114.91
2022-08-21T11:17:26.795Z,101119.59
2022-08-21T11:20:04.585Z,101113.25
2022-08-21T11:22:43.286Z,101113.91
2022-08-21T11:25:22.565Z,101113.72
2022-08-21T11:27:58.396Z,101107.22
2022-08-21T11:30:40.587Z,101107.75
2022-08-21T11:33:28.213Z,101109.94
2022-08-21T11:36:05.365Z,101110.41
2022-08-21T11:38:41.854Z,101116.47
2022-08-21T11:41:27.412Z,101108.66
2022-08-21T11:44:11.224Z,101105.09
2022-08-21T11:46:51.666Z,101106.34
2022-08-21T11:49:41.504Z,101103.31
2022-08-21T11:52:19.324Z,101100.59
2022-08-21T11:54:55.326Z,101099.47
2022-08-21T11:57:31.916Z,101106.81
2022-08-21T12:00:08.836Z,101101.56
2022-08-21T12:02:54.610Z,101091.34
2022-08-21T12:05:33.578Z,101092.41
2022-08-21T12:08:08.247Z,101091.06
2022-08-21T12:10:41.958Z,101078.09
2022-08-21T12:13:40.169Z,101085.72
2022-08-21T12:16:16.366Z,101081.47
2022-08-21T12:18:45.990Z,101080.97
2022-08-21T12:21:28.190Z,101084.19
2022-08-21T12:24:18.270Z,101083.88
2022-08-21T12:26:54.469Z,101093.22
2022-08-21T12:29:31.835Z,101087.16
2022-08-21T12:32:06.433Z,101090.19
2022-08-21T12:34:40.962Z,101090.66
2022-08-21T12:37:32.163Z,101098.78
2022-08-21T12:40:04.690Z,101083.81
2022-08-21T12:42:44.310Z,101091.97
2022-08-21T12:45:25.138Z,101093.88
2022-08-21T12:48:02.274Z,101095.75
2022-08-21T12:50:38.956Z,101100.66
2022-08-21T12:53:20.501Z,101099.66
2022-08-21T12:55:50.733Z,101104.19
2022-08-21T12:58:21.896Z,101097.25
2022-08-21T13:00:58.063Z,101096.72
2022-08-21T13:03:27.709Z,101091.41
2022-08-21T13:05:57.730Z,101092.28
2022-08-21T13:08:29.272Z,101086.59
2022-08-21T13:11:15.021Z,101078.25
2022-08-21T13:13:50.045Z,101060.88
2022-08-21T13:16:28.665Z,101073.66
2022-08-21T13:19:06.470Z,101071.69
2022-08-21T13:21:42.879Z,101068.16
2022-08-21T13:27:24.200Z,101064.22
2022-08-21T13:30:10.955Z,101066.06
2022-08-21T13:32:47.169Z,101069.78
2022-08-21T13:35:20.904Z,101075.84
2022-08-21T13:37:53.019Z,101072.25
2022-08-21T13:40:26.456Z,101057.78
2022-08-21T13:42:56.868Z,101064.13
2022-08-21T13:45:32.404Z,101056.81
2022-08-21T13:48:06.829Z,101048.50
2022-08-21T13:50:40.066Z,101056.47
2022-08-21T13:53:23.966Z,101062.41
2022-08-21T13:56:00.348Z,101065.88
2022-08-21T13:58:49.837Z,101063.44
2022-08-21T14:01:28.125Z,101057.47
2022-08-21T14:04:07.142Z,101056.03
2022-08-21T14:06:39.864Z,101055.97
2022-08-21T14:09:25.698Z,101047.84
2022-08-21T14:12:23.673Z,101058.34
2022-08-21T14:15:01.435Z,101052.16
2022-08-21T14:17:40.011Z,101034.16
2022-08-21T14:20:20.363Z,101038.78
2022-08-21T14:23:14.749Z,101044.63
2022-08-21T14:26:07.974Z,101047.16
2022-08-21T14:28:42.547Z,101034.38
2022-08-21T14:31:21.146Z,101030.38
2022-08-21T14:33:51.300Z,101033.44
2022-08-21T14:36:24.775Z,101043.03
2022-08-21T14:38:54.249Z,101042.47
2022-08-21T14:41:28.737Z,101041.56
2022-08-21T14:44:08.170Z,101041.41
2022-08-21T14:46:56.038Z,101031.38
2022-08-21T14:49:30.763Z,101020.69
2022-08-21T14:52:01.436Z,101035.50
2022-08-21T14:54:33.123Z,101032.16
2022-08-21T14:57:08.759Z,101032.56
2022-08-21T14:59:40.898Z,101031.31
2022-08-21T15:02:19.628Z,101023.88
2022-08-21T15:04:48.936Z,101030.09
2022-08-21T15:07:28.090Z,101034.22
2022-08-21T15:09:57.541Z,101032.72
2022-08-21T15:12:27.067Z,101039.56
2022-08-21T15:17:10.934Z,101039.59
2022-08-21T15:19:43.629Z,101032.00
2022-08-21T15:22:19.075Z,101039.56
2022-08-21T15:24:56.788Z,101034.78
2022-08-21T15:27:26.134Z,101028.78
2022-08-21T15:29:55.566Z,101026.00
2022-08-21T15:32:30.338Z,101038.31
2022-08-21T15:35:00.556Z,101044.31
2022-08-21T15:37:32.470Z,101045.53
2022-08-21T15:40:01.854Z,101039.53
2022-08-21T15:42:31.452Z,101031.94
2022-08-21T15:45:01.369Z,101031.91
2022-08-21T15:47:36.732Z,101040.66
2022-08-21T15:50:09.757Z,101027.84
2022-08-21T15:52:41.419Z,101046.66
2022-08-21T15:55:12.046Z,101031.84
2022-08-21T15:57:58.014Z,101002.97
2022-08-21T16:00:33.513Z,101026.75
2022-08-21T16:03:08.675Z,101030.94
2022-08-21T16:05:40.969Z,101016.84
2022-08-21T16:08:11.048Z,101019.19
2022-08-21T16:10:41.678Z,101009.41
2022-08-21T16:13:18.708Z,101019.00
2022-08-21T16:15:53.539Z,100999.69
2022-08-21T16:18:26.741Z,101009.97
2022-08-21T16:20:55.977Z,101005.13
2022-08-21T16:23:25.242Z,101015.47
2022-08-21T16:25:54.840Z,101008.22
2022-08-21T16:28:24.820Z,101013.00
2022-08-21T16:30:54.350Z,101005.47
2022-08-21T16:33:36.012Z,101000.38
2022-08-21T16:36:08.030Z,100977.19
2022-08-21T16:38:38.814Z,100993.50
2022-08-21T16:41:13.386Z,101002.88
2022-08-21T16:43:44.642Z,100986.69
2022-08-21T16:46:16.923Z,100999.44
2022-08-21T16:48:47.802Z,100981.22
2022-08-21T16:51:18.582Z,100990.56
2022-08-21T16:53:47.910Z,100993.91
2022-08-21T16:56:18.297Z,100992.03
2022-08-21T16:58:50.766Z,100995.41
2022-08-21T17:01:25.960Z,101002.50
2022-08-21T17:03:56.721Z,100991.25
2022-08-21T17:06:28.040Z,100994.66
2022-08-21T17:09:01.468Z,100983.50
2022-08-21T17:11:37.281Z,100989.25
2022-08-21T17:14:11.940Z,100979.09
2022-08-21T17:16:45.613Z,100986.00
2022-08-21T17:19:17.010Z,100996.16
2022-08-21T17:21:46.374Z,100987.00
2022-08-21T17:24:15.993Z,100982.59
2022-08-21T17:26:47.045Z,100982.59
2022-08-21T17:29:17.391Z,100991.44
2022-08-21T17:31:47.136Z,100992.19
2022-08-21T17:34:18.256Z,100988.78
2022-08-21T17:36:47.523Z,100987.28
2022-08-21T17:39:22.502Z,100990.44
2022-08-21T17:41:58.301Z,100999.72
2022-08-21T17:44:27.848Z,100989.16
2022-08-21T17:46:57.684Z,100993.09
2022-08-21T17:49:30.585Z,100980.72
2022-08-21T17:52:00.574Z,100977.16
2022-08-21T17:54:30.142Z,100998.19
2022-08-21T17:57:00.005Z,100996.44
2022-08-21T17:59:29.531Z,100980.22
2022-08-21T18:02:01.644Z,101002.63
2022-08-21T18:04:32.816Z,100997.69
2022-08-21T18:07:02.083Z,101011.19
2022-08-21T18:09:31.314Z,101005.31
2022-08-21T18:12:01.671Z,100988.53
2022-08-21T18:14:36.418Z,101002.13
2022-08-21T18:17:10.142Z,100998.59
2022-08-21T18:19:41.767Z,100990.16
2022-08-21T18:22:18.564Z,100989.16
2022-08-21T18:24:47.759Z,100982.69
2022-08-21T18:27:17.222Z,100975.47
2022-08-21T18:29:47.821Z,100976.22
2022-08-21T18:32:31.122Z,100976.72
2022-08-21T18:35:05.342Z,100974.31
2022-08-21T18:37:34.607Z,100975.84
2022-08-21T18:40:05.482Z,100997.09
2022-08-21T18:42:39.694Z,100984.75
2022-08-21T18:45:15.417Z,100982.47
2022-08-21T18:47:49.571Z,100979.22
2022-08-21T18:50:26.568Z,100989.56
2022-08-21T18:52:56.080Z,100985.69
2022-08-21T18:55:27.414Z,100968.22
2022-08-21T18:57:58.107Z,100978.69
2022-08-21T19:00:31.439Z,100992.69
2022-08-21T19:03:05.932Z,100977.31
2022-08-21T19:05:39.983Z,100982.84
2022-08-21T19:08:09.631Z,100984.50
2022-08-21T19:10:43.300Z,100982.47
2022-08-21T19:13:20.162Z,100970.00
2022-08-21T19:15:53.095Z,100981.78
2022-08-21T19:18:28.286Z,100973.59
2022-08-21T19:20:59.645Z,100980.72
2022-08-21T19:23:30.256Z,100981.00
2022-08-21T19:26:02.963Z,100981.38
2022-08-21T19:28:36.337Z,100974.31
2022-08-21T19:31:16.236Z,100981.72
2022-08-21T19:36:40.501Z,100978.91
2022-08-21T19:39:12.192Z,100976.63
2022-08-21T19:41:47.377Z,100980.50
2022-08-21T19:44:24.884Z,100983.91
2022-08-21T19:46:58.042Z,100969.94
2022-08-21T19:52:22.434Z,100981.13
2022-08-21T19:54:54.083Z,100979.72
2022-08-21T19:57:23.395Z,100968.16
2022-08-21T19:59:53.226Z,100983.47
2022-08-21T20:02:25.077Z,100973.97
2022-08-21T20:04:55.052Z,100968.50
2022-08-21T20:10:15.603Z,100970.91
2022-08-21T20:12:48.386Z,100954.28
2022-08-21T20:15:23.128Z,100964.13
2022-08-21T20:17:53.525Z,100963.34
2022-08-21T20:20:23.701Z,100958.22
2022-08-21T20:22:54.452Z,100947.16
2022-08-21T20:25:26.137Z,100957.59
2022-08-21T20:27:55.924Z,100943.31
2022-08-21T20:30:25.147Z,100950.19
2022-08-21T20:32:55.438Z,100952.06
2022-08-21T20:35:25.366Z,100944.84
2022-08-21T20:37:58.857Z,100927.78
2022-08-21T20:40:49.053Z,100936.03
2022-08-21T20:43:20.567Z,100953.34
2022-08-21T20:45:51.522Z,100947.94
2022-08-21T20:48:27.085Z,100950.44
2022-08-21T20:51:06.827Z,100941.78
2022-08-21T20:53:46.071Z,100953.09
2022-08-21T20:56:24.434Z,100959.00
2022-08-21T20:59:03.034Z,100946.88
2022-08-21T21:01:34.508Z,100948.91
2022-08-21T21:04:19.433Z,100937.66
2022-08-21T21:06:51.721Z,100941.06
2022-08-21T21:09:40.358Z,100934.06
2022-08-21T21:12:18.863Z,100935.59
2022-08-21T21:15:02.505Z,100929.06
2022-08-21T21:17:43.005Z,100946.56
2022-08-21T21:20:18.540Z,100924.59
2022-08-21T21:22:54.551Z,100938.97
2022-08-21T21:25:39.928Z,100942.84
2022-08-21T21:28:18.227Z,100936.84
2022-08-21T21:30:52.033Z,100930.84
2022-08-21T21:33:28.622Z,100931.06
2022-08-21T21:36:12.908Z,100931.75
2022-08-21T21:38:53.619Z,100935.34
2022-08-21T21:41:35.491Z,100941.41
2022-08-21T21:44:21.272Z,100938.66
2022-08-21T21:47:02.126Z,100932.22
2022-08-21T21:49:57.932Z,100935.34
2022-08-21T21:53:01.197Z,100944.63
2022-08-21T21:55:47.474Z,100937.59
2022-08-21T21:59:08.438Z,100935.16
2022-08-21T22:01:48.223Z,100925.97
2022-08-21T22:04:28.371Z,100931.69
2022-08-21T22:07:09.437Z,100932.19
2022-08-21T22:09:47.708Z,100929.53
2022-08-21T22:12:49.750Z,100916.84
2022-08-21T22:15:28.082Z,100922.22
2022-08-21T22:18:03.853Z,100928.00
2022-08-21T22:20:41.404Z,100900.06
2022-08-21T22:23:17.810Z,100912.63
2022-08-21T22:25:52.824Z,100911.91
2022-08-21T22:28:27.201Z,100898.50
2022-08-21T22:31:18.419Z,100887.78
2022-08-21T22:34:05.695Z,100869.66
2022-08-21T22:36:44.388Z,100889.16
2022-08-21T22:39:35.921Z,100879.06
2022-08-21T22:42:13.970Z,100880.13
2022-08-21T22:44:53.126Z,100876.03
2022-08-21T22:47:33.649Z,100880.44
2022-08-21T22:50:06.781Z,100876.75
2022-08-21T22:52:38.372Z,100873.81
2022-08-21T22:55:25.722Z,100891.13
2022-08-21T22:58:11.534Z,100887.09
2022-08-21T23:00:54.113Z,100880.44
2022-08-21T23:03:32.712Z,100892.47
2022-08-21T23:06:12.837Z,100885.59
2022-08-21T23:08:44.086Z,100874.25
2022-08-21T23:11:17.270Z,100892.81
2022-08-21T23:13:52.061Z,100886.47
2022-08-21T23:16:43.019Z,100868.53
2022-08-21T23:19:50.148Z,100872.19
2022-08-21T23:22:43.032Z,100871.41
2022-08-21T23:25:39.783Z,100862.91
2022-08-21T23:28:19.175Z,100857.22
2022-08-21T23:31:02.459Z,100861.22
2022-08-21T23:34:01.133Z,100858.97
2022-08-21T23:37:09.462Z,100851.13
2022-08-21T23:39:58.136Z,100842.47
2022-08-21T23:43:04.279Z,100856.13
2022-08-21T23:45:48.870Z,100853.41
2022-08-21T23:48:32.662Z,100856.34
2022-08-21T23:51:09.448Z,100866.34
2022-08-21T23:53:58.260Z,100848.78
2022-08-21T23:56:47.567Z,100851.34
2022-08-21T23:59:28.351Z,100860.34
